createdAt,value
2022-10-31T00:01:37.286Z,11.07
2022-10-31T00:04:04.583Z,10.97
2022-10-31T00:06:31.798Z,10.84
2022-10-31T00:09:01.504Z,11.15
2022-10-31T00:11:28.788Z,11.49
2022-10-31T00:13:55.756Z,11.53
2022-10-31T00:16:26.354Z,11.23
2022-10-31T00:18:55.069Z,11.33
2022-10-31T00:21:22.539Z,11.20
2022-10-31T00:23:49.260Z,11.47
2022-10-31T00:26:16.003Z,11.72
2022-10-31T00:28:42.868Z,11.95
2022-10-31T00:31:11.377Z,11.65
2022-10-31T00:33:39.646Z,11.04
2022-10-31T00:36:07.994Z,11.08
2022-10-31T00:38:34.650Z,11.30
2022-10-31T00:41:01.326Z,11.62
2022-10-31T00:43:27.944Z,11.34
2022-10-31T00:45:54.505Z,11.39
2022-10-31T00:48:21.137Z,11.17
2022-10-31T00:50:47.707Z,11.29
2022-10-31T00:53:14.299Z,10.83
2022-10-31T00:55:40.883Z,10.76
2022-10-31T00:58:07.635Z,11.04
2022-10-31T01:00:34.309Z,11.22
2022-10-31T01:03:01.220Z,11.61
2022-10-31T01:05:28.170Z,11.64
2022-10-31T01:07:54.821Z,11.58
2022-10-31T01:10:21.562Z,10.70
2022-10-31T01:12:49.606Z,11.24
2022-10-31T01:15:22.480Z,10.86
2022-10-31T01:17:50.424Z,10.95
2022-10-31T01:20:17.760Z,10.91
2022-10-31T01:22:44.336Z,11.10
2022-10-31T01:25:11.638Z,11.53
2022-10-31T01:27:38.211Z,11.49
2022-10-31T01:30:06.090Z,11.81
2022-10-31T01:32:32.691Z,10.46
2022-10-31T01:34:59.251Z,10.93
2022-10-31T01:37:25.910Z,10.84
2022-10-31T01:39:52.496Z,10.56
2022-10-31T01:42:22.767Z,10.44
2022-10-31T01:44:56.134Z,9.86
2022-10-31T01:47:41.158Z,9.92
2022-10-31T01:50:15.205Z,10.22
2022-10-31T01:52:48.105Z,10.02
2022-10-31T01:55:30.427Z,9.85
2022-10-31T01:58:13.542Z,10.39
2022-10-31T02:00:44.577Z,10.67
2022-10-31T02:03:11.825Z,9.76
2022-10-31T02:05:39.373Z,9.72
2022-10-31T02:08:20.462Z,10.18
2022-10-31T02:10:47.104Z,10.27
2022-10-31T02:13:14.186Z,10.73
2022-10-31T02:15:43.905Z,10.21
2022-10-31T02:18:10.977Z,10.98
2022-10-31T02:20:52.819Z,11.20
2022-10-31T02:23:45.187Z,11.21
2022-10-31T02:26:23.279Z,10.33
2022-10-31T02:29:11.568Z,10.19
2022-10-31T02:31:45.383Z,10.39
2022-10-31T02:34:18.004Z,10.34
2022-10-31T02:37:00.437Z,10.24
2022-10-31T02:39:46.410Z,10.17
2022-10-31T02:42:41.065Z,10.14
2022-10-31T02:45:31.178Z,10.38
2022-10-31T02:48:04.699Z,10.66
2022-10-31T02:50:36.016Z,10.43
2022-10-31T02:53:03.937Z,10.69
2022-10-31T02:55:30.502Z,10.67
2022-10-31T02:58:03.426Z,10.38
2022-10-31T03:00:39.627Z,10.25
2022-10-31T03:03:15.588Z,10.67
2022-10-31T03:06:00.169Z,10.13
2022-10-31T03:08:49.542Z,9.93
2022-10-31T03:11:22.095Z,10.04
2022-10-31T03:14:07.859Z,10.44
2022-10-31T03:16:49.915Z,10.57
2022-10-31T03:19:42.114Z,10.88
2022-10-31T03:22:18.036Z,10.76
2022-10-31T03:24:46.522Z,10.64
2022-10-31T03:27:17.460Z,11.02
2022-10-31T03:29:45.985Z,11.30
2022-10-31T03:32:26.097Z,10.94
2022-10-31T03:34:57.510Z,10.86
2022-10-31T03:37:28.844Z,11.03
2022-10-31T03:39:56.532Z,11.19
2022-10-31T03:42:26.414Z,10.84
2022-10-31T03:45:14.219Z,10.83
2022-10-31T03:47:44.054Z,10.39
2022-10-31T03:50:13.612Z,10.58
2022-10-31T03:52:42.965Z,11.04
2022-10-31T03:55:32.756Z,11.19
2022-10-31T03:58:11.031Z,10.92
2022-10-31T04:00:43.273Z,11.45
2022-10-31T04:03:18.577Z,11.14
2022-10-31T04:05:48.377Z,11.49
2022-10-31T04:08:20.369Z,11.14
2022-10-31T04:10:50.159Z,10.88
2022-10-31T04:13:23.773Z,10.52
2022-10-31T04:15:53.561Z,10.47
2022-10-31T04:18:20.382Z,10.72
2022-10-31T04:20:48.478Z,10.81
2022-10-31T04:23:20.549Z,10.48
2022-10-31T04:25:47.189Z,10.47
2022-10-31T04:28:13.915Z,10.79
2022-10-31T04:30:40.512Z,10.61
2022-10-31T04:33:07.121Z,10.73
2022-10-31T04:35:33.772Z,11.09
2022-10-31T04:38:00.436Z,10.61
2022-10-31T04:40:27.153Z,10.74
2022-10-31T04:42:53.790Z,10.12
2022-10-31T04:45:21.447Z,10.23
2022-10-31T04:47:48.205Z,10.59
2022-10-31T04:50:14.906Z,10.37
2022-10-31T04:52:43.038Z,11.40
2022-10-31T04:55:10.910Z,11.06
2022-10-31T04:57:45.408Z,11.17
2022-10-31T05:00:13.598Z,11.48
2022-10-31T05:02:53.911Z,11.08
2022-10-31T05:05:23.728Z,11.28
2022-10-31T05:07:51.652Z,11.29
2022-10-31T05:10:20.991Z,11.17
2022-10-31T05:12:55.882Z,11.63
2022-10-31T05:15:24.390Z,11.58
2022-10-31T05:17:51.806Z,11.21
2022-10-31T05:20:19.965Z,11.52
2022-10-31T05:22:48.848Z,11.65
2022-10-31T05:25:16.279Z,11.38
2022-10-31T05:27:45.159Z,11.48
2022-10-31T05:30:13.735Z,11.53
2022-10-31T05:32:45.074Z,10.98
2022-10-31T05:35:14.776Z,10.37
2022-10-31T05:37:41.576Z,10.15
2022-10-31T05:40:10.570Z,10.23
2022-10-31T05:42:39.717Z,9.94
2022-10-31T05:45:08.374Z,10.43
2022-10-31T05:47:35.000Z,10.42
2022-10-31T05:50:01.605Z,10.87
2022-10-31T05:52:28.185Z,10.34
2022-10-31T05:54:54.755Z,10.82
2022-10-31T05:57:21.360Z,10.59
2022-10-31T05:59:52.291Z,10.44
2022-10-31T06:02:21.932Z,10.96
2022-10-31T06:04:48.930Z,11.01
2022-10-31T06:07:15.541Z,11.26
2022-10-31T06:09:42.292Z,11.15
2022-10-31T06:12:08.871Z,10.59
2022-10-31T06:14:35.550Z,10.33
2022-10-31T06:17:02.128Z,10.80
2022-10-31T06:19:28.748Z,10.74
2022-10-31T06:21:55.376Z,11.02
2022-10-31T06:24:21.965Z,11.23
2022-10-31T06:26:48.572Z,11.41
2022-10-31T06:29:15.208Z,11.50
2022-10-31T06:31:41.803Z,11.31
2022-10-31T06:34:08.495Z,11.07
2022-10-31T06:36:35.163Z,11.24
2022-10-31T06:39:01.779Z,11.38
2022-10-31T06:41:28.456Z,11.29
2022-10-31T06:43:55.062Z,11.48
2022-10-31T06:46:21.725Z,11.58
2022-10-31T06:48:48.316Z,11.65
2022-10-31T06:51:14.907Z,11.73
2022-10-31T06:53:41.585Z,11.90
2022-10-31T06:56:08.236Z,11.59
2022-10-31T06:58:34.861Z,10.93
2022-10-31T07:01:01.877Z,11.29
2022-10-31T07:03:28.522Z,10.98
2022-10-31T07:05:58.872Z,11.00
2022-10-31T07:08:25.655Z,11.38
2022-10-31T07:10:57.307Z,11.44
2022-10-31T07:13:24.824Z,11.32
2022-10-31T07:15:51.416Z,10.87
2022-10-31T07:18:18.017Z,10.44
2022-10-31T07:20:44.697Z,10.71
2022-10-31T07:23:11.781Z,10.91
2022-10-31T07:25:41.926Z,10.71
2022-10-31T07:28:09.811Z,10.77
2022-10-31T07:30:36.392Z,11.00
2022-10-31T07:33:03.458Z,11.19
2022-10-31T07:35:30.871Z,11.32
2022-10-31T07:37:58.474Z,10.88
2022-10-31T07:40:25.619Z,11.02
2022-10-31T07:42:53.761Z,10.92
2022-10-31T07:45:21.696Z,11.15
2022-10-31T07:47:53.182Z,11.36
2022-10-31T07:50:31.705Z,11.37
2022-10-31T07:53:12.085Z,11.28
2022-10-31T07:55:38.801Z,11.13
2022-10-31T07:58:08.242Z,10.98
2022-10-31T08:00:36.820Z,11.13
2022-10-31T08:03:12.464Z,11.46
2022-10-31T08:05:39.623Z,11.53
2022-10-31T08:08:06.359Z,11.63
2022-10-31T08:10:34.573Z,11.63
2022-10-31T08:13:07.338Z,11.59
2022-10-31T08:15:34.709Z,11.43
2022-10-31T08:18:01.701Z,10.85
2022-10-31T08:20:28.537Z,10.91
2022-10-31T08:22:56.318Z,11.25
2022-10-31T08:25:23.907Z,11.39
2022-10-31T08:27:52.518Z,11.71
2022-10-31T08:30:20.592Z,11.69
2022-10-31T08:32:47.797Z,11.27
2022-10-31T08:35:14.889Z,10.80
2022-10-31T08:37:42.309Z,10.70
2022-10-31T08:40:09.569Z,11.47
2022-10-31T08:42:36.148Z,11.61
2022-10-31T08:45:02.901Z,11.12
2022-10-31T08:47:29.481Z,10.95
2022-10-31T08:49:56.080Z,11.10
2022-10-31T08:52:51.005Z,10.86
2022-10-31T08:55:12.822Z,11.45
2022-10-31T08:57:39.403Z,11.55
2022-10-31T09:00:06.656Z,11.86
2022-10-31T09:02:33.320Z,11.82
2022-10-31T09:05:00.010Z,11.94
2022-10-31T09:07:26.764Z,12.06
2022-10-31T09:09:53.334Z,11.41
2022-10-31T09:12:19.930Z,11.45
2022-10-31T09:14:46.511Z,11.16
2022-10-31T09:17:13.117Z,11.51
2022-10-31T09:19:39.698Z,11.43
2022-10-31T09:22:06.324Z,11.80
2022-10-31T09:24:32.957Z,11.89
2022-10-31T09:26:59.576Z,11.86
2022-10-31T09:29:26.169Z,12.19
2022-10-31T09:31:52.795Z,12.23
2022-10-31T09:34:19.438Z,12.08
2022-10-31T09:36:46.049Z,11.80
2022-10-31T09:39:12.632Z,11.59
2022-10-31T09:41:54.508Z,12.01
2022-10-31T09:44:32.588Z,11.97
2022-10-31T09:47:24.001Z,11.64
2022-10-31T09:50:00.466Z,11.56
2022-10-31T09:52:34.791Z,11.63
2022-10-31T09:55:26.918Z,11.80
2022-10-31T09:57:54.595Z,11.89
2022-10-31T10:00:22.716Z,12.16
2022-10-31T10:02:55.480Z,12.07
2022-10-31T10:05:29.401Z,11.92
2022-10-31T10:08:17.187Z,11.96
2022-10-31T10:10:52.837Z,12.17
2022-10-31T10:13:41.230Z,12.12
2022-10-31T10:16:34.325Z,12.20
2022-10-31T10:19:29.372Z,11.92
2022-10-31T10:22:01.737Z,11.76
2022-10-31T10:25:13.449Z,11.86
2022-10-31T10:28:22.129Z,12.13
2022-10-31T10:30:55.344Z,12.05
2022-10-31T10:33:29.398Z,11.54
2022-10-31T10:36:21.281Z,11.09
2022-10-31T10:38:50.789Z,11.77
2022-10-31T10:41:20.361Z,11.77
2022-10-31T10:43:49.198Z,11.32
2022-10-31T10:46:22.826Z,10.95
2022-10-31T10:48:59.271Z,11.45
2022-10-31T10:52:13.093Z,11.68
2022-10-31T10:55:01.023Z,11.85
2022-10-31T10:58:02.355Z,11.53
2022-10-31T11:00:36.284Z,11.72
2022-10-31T11:03:03.416Z,11.73
2022-10-31T11:05:55.936Z,11.66
2022-10-31T11:08:27.552Z,11.67
2022-10-31T11:11:08.293Z,11.86
2022-10-31T11:13:36.890Z,11.70
2022-10-31T11:16:13.446Z,11.58
2022-10-31T11:18:47.192Z,11.15
2022-10-31T11:21:43.669Z,11.31
2022-10-31T11:24:10.300Z,11.27
2022-10-31T11:26:38.445Z,11.54
2022-10-31T11:29:06.240Z,11.73
2022-10-31T11:31:35.876Z,12.14
2022-10-31T11:34:33.944Z,12.05
2022-10-31T11:37:17.564Z,11.54
2022-10-31T11:39:52.790Z,11.44
2022-10-31T11:42:24.704Z,11.62
2022-10-31T11:44:53.560Z,11.75
2022-10-31T11:47:27.492Z,11.61
2022-10-31T11:49:56.252Z,11.80
2022-10-31T11:52:29.582Z,12.08
2022-10-31T11:54:57.226Z,12.24
2022-10-31T11:57:32.849Z,11.87
2022-10-31T12:00:02.712Z,11.68
2022-10-31T12:02:29.377Z,11.45
2022-10-31T12:05:05.397Z,12.02
2022-10-31T12:07:32.246Z,12.25
2022-10-31T12:09:58.972Z,11.66
2022-10-31T12:12:37.482Z,11.78
2022-10-31T12:15:19.244Z,11.79
2022-10-31T12:18:05.390Z,11.94
2022-10-31T12:20:50.401Z,12.18
2022-10-31T12:23:27.195Z,12.15
2022-10-31T12:26:17.715Z,12.16
2022-10-31T12:29:16.663Z,11.95
2022-10-31T12:32:25.062Z,12.29
2022-10-31T12:34:51.582Z,11.97
2022-10-31T12:37:33.158Z,12.29
2022-10-31T12:40:13.889Z,12.00
2022-10-31T12:43:00.297Z,12.08
2022-10-31T12:45:58.018Z,11.93
2022-10-31T12:48:52.647Z,11.73
2022-10-31T12:51:40.268Z,11.89
2022-10-31T12:54:24.776Z,11.77
2022-10-31T12:57:15.691Z,11.92
2022-10-31T13:00:06.545Z,11.80
2022-10-31T13:02:52.437Z,11.83
2022-10-31T13:05:41.384Z,11.78
2022-10-31T13:08:24.306Z,11.03
2022-10-31T13:11:20.928Z,11.50
2022-10-31T13:13:50.512Z,11.44
2022-10-31T13:16:21.909Z,11.53
2022-10-31T13:18:57.455Z,11.60
2022-10-31T13:21:30.979Z,11.45
2022-10-31T13:24:01.617Z,12.13
2022-10-31T13:26:34.113Z,11.85
2022-10-31T13:29:10.441Z,11.65
2022-10-31T13:31:41.281Z,11.93
2022-10-31T13:34:19.637Z,11.89
2022-10-31T13:37:03.922Z,11.87
2022-10-31T13:39:33.458Z,12.08
2022-10-31T13:42:18.018Z,12.18
2022-10-31T13:44:44.674Z,12.04
2022-10-31T13:47:30.538Z,12.11
2022-10-31T13:50:23.367Z,12.36
2022-10-31T13:52:50.084Z,11.99
2022-10-31T13:56:10.601Z,11.83
2022-10-31T13:58:37.708Z,11.82
2022-10-31T14:01:23.452Z,12.02
2022-10-31T14:04:25.573Z,12.17
2022-10-31T14:07:08.968Z,12.04
2022-10-31T14:09:59.456Z,12.00
2022-10-31T14:12:47.139Z,12.02
2022-10-31T14:15:17.853Z,11.75
2022-10-31T14:17:51.118Z,11.71
2022-10-31T14:20:17.642Z,12.06
2022-10-31T14:22:45.126Z,12.20
2022-10-31T14:25:33.509Z,11.99
2022-10-31T14:28:04.215Z,12.11
2022-10-31T14:30:31.655Z,12.13
2022-10-31T14:33:12.170Z,12.06
2022-10-31T14:36:02.288Z,11.28
2022-10-31T14:38:41.574Z,11.76
2022-10-31T14:41:43.669Z,12.17
2022-10-31T14:44:23.394Z,11.89
2022-10-31T14:47:11.117Z,12.04
2022-10-31T14:50:19.980Z,12.23
2022-10-31T14:52:51.095Z,12.38
2022-10-31T14:55:19.893Z,11.79
2022-10-31T14:58:00.689Z,12.00
2022-10-31T15:00:29.445Z,11.79
2022-10-31T15:03:02.760Z,12.15
2022-10-31T15:05:31.088Z,12.11
2022-10-31T15:07:59.306Z,12.02
2022-10-31T15:10:29.854Z,11.83
2022-10-31T15:12:57.172Z,11.89
2022-10-31T15:15:26.536Z,11.63
2022-10-31T15:18:00.287Z,11.51
2022-10-31T15:20:29.650Z,11.59
2022-10-31T15:22:58.663Z,11.70
2022-10-31T15:25:29.651Z,12.02
2022-10-31T15:27:56.370Z,12.09
2022-10-31T15:30:28.836Z,11.91
2022-10-31T15:32:58.761Z,11.94
2022-10-31T15:35:29.263Z,11.59
2022-10-31T15:37:57.844Z,11.51
2022-10-31T15:40:27.246Z,11.86
2022-10-31T15:42:57.634Z,11.83
2022-10-31T15:45:26.806Z,11.93
2022-10-31T15:48:04.443Z,11.82
2022-10-31T15:50:41.303Z,11.59
2022-10-31T15:53:19.056Z,11.90
2022-10-31T15:56:20.146Z,11.77
2022-10-31T15:58:49.999Z,11.58
2022-10-31T16:01:31.600Z,11.32
2022-10-31T16:04:05.005Z,11.69
2022-10-31T16:06:33.946Z,11.73
2022-10-31T16:09:00.799Z,11.87
2022-10-31T16:11:36.785Z,11.77
2022-10-31T16:14:12.291Z,11.69
2022-10-31T16:16:50.600Z,11.52
2022-10-31T16:19:25.147Z,11.95
2022-10-31T16:21:56.722Z,11.80
2022-10-31T16:24:30.364Z,11.65
2022-10-31T16:27:04.515Z,11.45
2022-10-31T16:29:43.446Z,11.57
2022-10-31T16:32:29.530Z,11.66
2022-10-31T16:35:11.388Z,11.61
2022-10-31T16:37:39.473Z,11.52
2022-10-31T16:40:06.597Z,11.94
2022-10-31T16:42:33.577Z,11.98
2022-10-31T16:45:00.750Z,12.02
2022-10-31T16:47:28.608Z,11.93
2022-10-31T16:49:55.398Z,11.88
2022-10-31T16:52:22.039Z,11.52
2022-10-31T16:54:48.648Z,11.53
2022-10-31T16:57:19.233Z,11.53
2022-10-31T16:59:51.309Z,11.47
2022-10-31T17:02:18.696Z,11.59
2022-10-31T17:04:45.515Z,11.63
2022-10-31T17:07:12.100Z,11.51
2022-10-31T17:09:38.670Z,11.35
2022-10-31T17:12:07.993Z,11.39
2022-10-31T17:14:35.382Z,11.40
2022-10-31T17:17:02.172Z,11.39
2022-10-31T17:19:28.813Z,11.13
2022-10-31T17:21:55.439Z,10.92
2022-10-31T17:24:22.109Z,11.34
2022-10-31T17:26:48.686Z,11.54
2022-10-31T17:29:15.277Z,11.58
2022-10-31T17:31:42.126Z,11.37
2022-10-31T17:34:09.307Z,11.85
2022-10-31T17:36:36.124Z,11.63
2022-10-31T17:39:03.833Z,11.75
2022-10-31T17:41:30.643Z,11.62
2022-10-31T17:44:00.911Z,11.47
2022-10-31T17:46:27.570Z,11.85
2022-10-31T17:48:54.255Z,12.06
2022-10-31T17:51:20.850Z,11.87
2022-10-31T17:53:47.441Z,11.70
2022-10-31T17:56:14.190Z,11.11
2022-10-31T17:58:40.789Z,11.37
2022-10-31T18:01:13.414Z,11.40
2022-10-31T18:03:40.365Z,11.65
2022-10-31T18:06:08.077Z,11.66
2022-10-31T18:08:38.722Z,11.39
2022-10-31T18:11:17.690Z,11.39
2022-10-31T18:13:44.339Z,11.26
2022-10-31T18:16:14.397Z,11.38
2022-10-31T18:18:41.268Z,11.41
2022-10-31T18:21:08.522Z,11.49
2022-10-31T18:23:35.155Z,11.59
2022-10-31T18:26:01.886Z,11.35
2022-10-31T18:28:28.482Z,11.25
2022-10-31T18:30:55.128Z,11.63
2022-10-31T18:33:21.722Z,11.64
2022-10-31T18:35:48.328Z,11.47
2022-10-31T18:38:15.010Z,11.57
2022-10-31T18:40:41.655Z,11.62
2022-10-31T18:43:08.263Z,11.54
2022-10-31T18:45:46.443Z,11.64
2022-10-31T18:48:15.287Z,11.60
2022-10-31T18:50:42.316Z,11.39
2022-10-31T18:53:08.923Z,11.16
2022-10-31T18:55:42.596Z,11.12
2022-10-31T18:58:12.372Z,11.29
2022-10-31T19:00:38.980Z,11.17
2022-10-31T19:03:06.303Z,11.03
2022-10-31T19:05:33.017Z,11.24
2022-10-31T19:07:59.607Z,11.19
2022-10-31T19:10:28.982Z,11.37
2022-10-31T19:12:57.162Z,10.98
2022-10-31T19:15:23.738Z,11.20
2022-10-31T19:17:50.327Z,11.29
2022-10-31T19:20:17.034Z,11.20
2022-10-31T19:22:43.678Z,10.98
2022-10-31T19:25:11.027Z,11.01
2022-10-31T19:27:38.549Z,11.06
2022-10-31T19:30:06.415Z,11.24
2022-10-31T19:32:33.263Z,11.08
2022-10-31T19:35:00.115Z,11.03
2022-10-31T19:37:26.813Z,11.35
2022-10-31T19:39:53.386Z,11.10
2022-10-31T19:42:21.104Z,11.26
2022-10-31T19:44:47.725Z,11.15
2022-10-31T19:47:14.305Z,11.32
2022-10-31T19:49:40.891Z,11.22
2022-10-31T19:52:07.477Z,11.09
2022-10-31T19:54:34.081Z,11.14
2022-10-31T19:57:00.793Z,11.12
2022-10-31T19:59:27.399Z,11.08
2022-10-31T20:01:54.123Z,11.02
2022-10-31T20:04:20.912Z,11.14
2022-10-31T20:06:47.611Z,10.90
2022-10-31T20:09:15.037Z,10.88
2022-10-31T20:11:43.900Z,11.02
2022-10-31T20:14:13.416Z,11.17
2022-10-31T20:16:40.639Z,11.39
2022-10-31T20:19:07.774Z,11.32
2022-10-31T20:21:40.095Z,11.26
2022-10-31T20:24:09.079Z,11.34
2022-10-31T20:26:37.285Z,11.40
2022-10-31T20:29:04.391Z,11.61
2022-10-31T20:31:34.306Z,11.02
2022-10-31T20:34:00.986Z,11.10
2022-10-31T20:36:28.261Z,11.09
2022-10-31T20:38:55.189Z,10.79
2022-10-31T20:41:21.893Z,10.86
2022-10-31T20:43:48.592Z,10.80
2022-10-31T20:46:22.582Z,10.77
2022-10-31T20:48:50.035Z,10.84
2022-10-31T20:51:21.287Z,10.58
2022-10-31T20:53:49.234Z,10.81
2022-10-31T20:56:18.263Z,10.79
2022-10-31T20:58:45.909Z,10.84
2022-10-31T21:01:13.775Z,10.95
2022-10-31T21:03:40.493Z,11.02
2022-10-31T21:06:08.203Z,11.20
2022-10-31T21:08:35.221Z,10.96
2022-10-31T21:11:07.031Z,11.08
2022-10-31T21:13:40.438Z,10.97
2022-10-31T21:16:12.639Z,11.06
2022-10-31T21:18:41.637Z,11.05
2022-10-31T21:21:16.467Z,10.95
2022-10-31T21:23:43.657Z,10.99
2022-10-31T21:26:16.724Z,10.69
2022-10-31T21:28:43.713Z,10.50
2022-10-31T21:31:13.135Z,10.93
2022-10-31T21:33:40.497Z,10.90
2022-10-31T21:36:07.957Z,10.81
2022-10-31T21:38:35.706Z,10.94
2022-10-31T21:41:08.006Z,11.04
2022-10-31T21:43:43.192Z,10.91
2022-10-31T21:46:21.069Z,10.92
2022-10-31T21:48:48.703Z,10.92
2022-10-31T21:51:20.977Z,10.84
2022-10-31T21:53:48.583Z,11.16
2022-10-31T21:56:15.257Z,11.26
2022-10-31T21:58:42.076Z,11.22
2022-10-31T22:01:08.857Z,10.71
2022-10-31T22:03:36.722Z,10.64
2022-10-31T22:06:04.921Z,10.89
2022-10-31T22:08:31.679Z,10.85
2022-10-31T22:11:02.797Z,10.79
2022-10-31T22:13:31.179Z,10.72
2022-10-31T22:16:05.804Z,10.78
2022-10-31T22:18:32.892Z,10.77
2022-10-31T22:21:03.996Z,10.76
2022-10-31T22:23:31.466Z,10.89
2022-10-31T22:26:10.028Z,10.91
2022-10-31T22:28:36.620Z,10.83
2022-10-31T22:31:05.204Z,10.84
2022-10-31T22:33:32.276Z,10.72
2022-10-31T22:36:03.514Z,10.84
2022-10-31T22:38:30.785Z,10.68
2022-10-31T22:41:03.498Z,10.55
2022-10-31T22:43:30.092Z,10.52
2022-10-31T22:45:58.430Z,10.78
2022-10-31T22:48:24.997Z,10.70
2022-10-31T22:50:51.658Z,10.29
2022-10-31T22:53:18.346Z,10.17
2022-10-31T22:55:45.039Z,10.37
2022-10-31T22:58:11.777Z,10.39
2022-10-31T23:00:38.407Z,10.47
2022-10-31T23:03:05.083Z,10.64
2022-10-31T23:05:31.775Z,10.57
2022-10-31T23:07:58.655Z,10.87
2022-10-31T23:10:25.463Z,11.01
2022-10-31T23:12:52.700Z,10.89
2022-10-31T23:15:19.286Z,10.93
2022-10-31T23:17:45.885Z,10.89
2022-10-31T23:20:12.457Z,10.67
2022-10-31T23:22:39.074Z,10.60
2022-10-31T23:25:05.855Z,10.49
2022-10-31T23:27:32.506Z,10.65
2022-10-31T23:29:59.719Z,10.76
2022-10-31T23:32:32.692Z,10.69
2022-10-31T23:35:01.472Z,10.98
2022-10-31T23:37:30.544Z,11.02
2022-10-31T23:39:57.792Z,11.12
2022-10-31T23:42:25.048Z,11.23
2022-10-31T23:44:51.955Z,10.81
2022-10-31T23:47:19.754Z,10.84
2022-10-31T23:49:46.512Z,10.75
2022-10-31T23:52:14.229Z,10.95
2022-10-31T23:54:40.931Z,10.65
2022-10-31T23:57:08.242Z,10.72
2022-10-31T23:59:34.900Z,10.83
